sensor_id;sensor_type;location;lat;lon;timestamp;temperature;humidity
40249;DHT22;25969;49.970;11.062;2023-04-05T04:06:12;-0.40;75.80
40249;DHT22;25969;49.970;11.062;2023-04-05T04:16:13;0.10;75.00
40249;DHT22;25969;49.970;11.062;2023-04-05T04:26:34;-1.10;80.30
40249;DHT22;25969;49.970;11.062;2023-04-05T04:36:51;-2.00;85.70
40249;DHT22;25969;49.970;11.062;2023-04-05T04:47:18;-2.40;88.10
40249;DHT22;25969;49.970;11.062;2023-04-05T04:57:41;-2.70;90.00
40249;DHT22;25969;49.970;11.062;2023-04-05T05:07:42;-2.70;90.90
40249;DHT22;25969;49.970;11.062;2023-04-05T05:17:43;-2.50;91.20
40249;DHT22;25969;49.970;11.062;2023-04-05T05:27:47;-2.00;91.10
40249;DHT22;25969;49.970;11.062;2023-04-05T05:37:48;-1.40;89.40
40249;DHT22;25969;49.970;11.062;2023-04-05T05:47:49;0.10;81.20
40249;DHT22;25969;49.970;11.062;2023-04-05T05:57:49;0.30;77.50
40249;DHT22;25969;49.970;11.062;2023-04-05T06:07:52;0.60;74.80
40249;DHT22;25969;49.970;11.062;2023-04-05T06:17:53;1.00;74.10
40249;DHT22;25969;49.970;11.062;2023-04-05T06:27:53;1.50;72.30
40249;DHT22;25969;49.970;11.062;2023-04-05T06:37:54;1.70;70.30
40249;DHT22;25969;49.970;11.062;2023-04-05T06:47:55;2.20;69.20
40249;DHT22;25969;49.970;11.062;2023-04-05T06:57:55;2.20;69.10
40249;DHT22;25969;49.970;11.062;2023-04-05T07:07:56;2.60;68.70
40249;DHT22;25969;49.970;11.062;2023-04-05T07:17:57;2.30;68.30
40249;DHT22;25969;49.970;11.062;2023-04-05T07:28:23;2.20;69.10
40249;DHT22;25969;49.970;11.062;2023-04-05T07:38:25;2.60;68.20
40249;DHT22;25969;49.970;11.062;2023-04-05T07:48:26;3.00;65.30
40249;DHT22;25969;49.970;11.062;2023-04-05T07:58:27;3.80;63.30
40249;DHT22;25969;49.970;11.062;2023-04-05T08:08:29;4.10;61.40
40249;DHT22;25969;49.970;11.062;2023-04-05T08:18:30;4.60;58.70
40249;DHT22;25969;49.970;11.062;2023-04-05T08:28:31;5.30;58.10
40249;DHT22;25969;49.970;11.062;2023-04-05T08:38:32;5.70;57.50
40249;DHT22;25969;49.970;11.062;2023-04-05T08:48:33;8.20;51.00
40249;DHT22;25969;49.970;11.062;2023-04-05T08:58:36;8.90;51.60
40249;DHT22;25969;49.970;11.062;2023-04-05T09:08:38;10.20;48.60
40249;DHT22;25969;49.970;11.062;2023-04-05T09:18:39;13.40;42.10
40249;DHT22;25969;49.970;11.062;2023-04-05T09:28:40;13.90;38.40
40249;DHT22;25969;49.970;11.062;2023-04-05T09:38:43;17.60;31.90
40249;DHT22;25969;49.970;11.062;2023-04-05T09:48:48;12.00;41.20
40249;DHT22;25969;49.970;11.062;2023-04-05T09:58:51;10.30;41.90
40249;DHT22;25969;49.970;11.062;2023-04-05T10:08:52;20.20;29.80
40249;DHT22;25969;49.970;11.062;2023-04-05T10:18:54;21.40;28.50
40249;DHT22;25969;49.970;11.062;2023-04-05T10:28:59;19.70;27.60
40249;DHT22;25969;49.970;11.062;2023-04-05T10:39:20;12.60;39.40
40249;DHT22;25969;49.970;11.062;2023-04-05T10:49:45;11.10;40.20
40249;DHT22;25969;49.970;11.062;2023-04-05T10:59:48;15.30;36.80
40249;DHT22;25969;49.970;11.062;2023-04-05T11:10:03;15.30;33.60
40249;DHT22;25969;49.970;11.062;2023-04-05T11:20:05;23.40;25.60
40249;DHT22;25969;49.970;11.062;2023-04-05T11:30:06;14.70;32.00
40249;DHT22;25969;49.970;11.062;2023-04-05T11:40:32;11.30;38.00
40249;DHT22;25969;49.970;11.062;2023-04-05T11:50:34;11.90;38.30
40249;DHT22;25969;49.970;11.062;2023-04-05T12:00:35;13.10;35.90
40249;DHT22;25969;49.970;11.062;2023-04-05T12:10:36;23.40;26.20
40249;DHT22;25969;49.970;11.062;2023-04-05T12:20:37;23.10;24.30
40249;DHT22;25969;49.970;11.062;2023-04-05T12:30:48;23.60;23.40
40249;DHT22;25969;49.970;11.062;2023-04-05T12:40:51;24.20;23.50
40249;DHT22;25969;49.970;11.062;2023-04-05T12:50:52;23.70;24.40
40249;DHT22;25969;49.970;11.062;2023-04-05T13:00:54;19.80;26.00
40249;DHT22;25969;49.970;11.062;2023-04-05T13:10:56;13.50;34.50
40249;DHT22;25969;49.970;11.062;2023-04-05T13:20:56;11.60;36.10
40249;DHT22;25969;49.970;11.062;2023-04-05T13:30:58;11.90;37.00
40249;DHT22;25969;49.970;11.062;2023-04-05T13:40:59;15.30;34.80
40249;DHT22;25969;49.970;11.062;2023-04-05T13:50:59;15.70;29.50
40249;DHT22;25969;49.970;11.062;2023-04-05T14:01:01;18.40;26.60
40249;DHT22;25969;49.970;11.062;2023-04-05T14:11:02;15.80;30.40
40249;DHT22;25969;49.970;11.062;2023-04-05T14:21:03;14.80;31.30
40249;DHT22;25969;49.970;11.062;2023-04-05T14:31:04;19.00;27.50
40249;DHT22;25969;49.970;11.062;2023-04-05T14:41:04;18.10;28.60
40249;DHT22;25969;49.970;11.062;2023-04-05T14:51:05;17.70;29.10
40249;DHT22;25969;49.970;11.062;2023-04-05T15:01:06;16.20;29.70
40249;DHT22;25969;49.970;11.062;2023-04-05T15:11:09;16.50;29.90
40249;DHT22;25969;49.970;11.062;2023-04-05T15:21:10;15.30;33.30
40249;DHT22;25969;49.970;11.062;2023-04-05T15:31:10;15.20;32.60
40249;DHT22;25969;49.970;11.062;2023-04-05T15:41:12;14.70;34.40
40249;DHT22;25969;49.970;11.062;2023-04-05T15:51:12;13.70;37.90
40249;DHT22;25969;49.970;11.062;2023-04-05T16:01:14;13.90;35.00
40249;DHT22;25969;49.970;11.062;2023-04-05T16:11:15;13.80;36.90
40249;DHT22;25969;49.970;11.062;2023-04-05T16:21:16;12.50;38.40
40249;DHT22;25969;49.970;11.062;2023-04-05T16:31:16;12.50;36.90
40249;DHT22;25969;49.970;11.062;2023-04-05T16:41:17;11.40;39.50
40249;DHT22;25969;49.970;11.062;2023-04-05T16:51:18;11.20;41.00
40249;DHT22;25969;49.970;11.062;2023-04-05T17:01:19;10.50;41.70
40249;DHT22;25969;49.970;11.062;2023-04-05T17:11:19;10.10;42.80
40249;DHT22;25969;49.970;11.062;2023-04-05T17:21:20;9.30;43.20
40249;DHT22;25969;49.970;11.062;2023-04-05T17:31:22;8.60;46.60
40249;DHT22;25969;49.970;11.062;2023-04-05T17:41:23;7.60;50.30
40249;DHT22;25969;49.970;11.062;2023-04-05T17:51:23;6.70;51.80
40249;DHT22;25969;49.970;11.062;2023-04-05T18:01:25;6.20;54.30
40249;DHT22;25969;49.970;11.062;2023-04-05T18:11:26;5.70;57.50
40249;DHT22;25969;49.970;11.062;2023-04-05T18:21:26;4.70;66.40
40249;DHT22;25969;49.970;11.062;2023-04-05T18:31:28;3.70;68.10
40249;DHT22;25969;49.970;11.062;2023-04-05T18:41:29;3.70;63.80
40249;DHT22;25969;49.970;11.062;2023-04-05T18:51:29;3.40;63.80
40249;DHT22;25969;49.970;11.062;2023-04-05T19:01:30;2.20;75.40
40249;DHT22;25969;49.970;11.062;2023-04-05T19:11:31;2.00;76.90
40249;DHT22;25969;49.970;11.062;2023-04-05T19:21:32;1.80;78.30
40249;DHT22;25969;49.970;11.062;2023-04-05T19:31:34;1.70;79.20
40249;DHT22;25969;49.970;11.062;2023-04-05T19:41:35;1.40;80.70
40249;DHT22;25969;49.970;11.062;2023-04-05T19:51:36;1.40;80.80
40249;DHT22;25969;49.970;11.062;2023-04-05T20:01:39;1.30;80.70
40249;DHT22;25969;49.970;11.062;2023-04-05T20:11:40;1.10;81.20
40249;DHT22;25969;49.970;11.062;2023-04-05T20:21:42;1.00;80.60
40249;DHT22;25969;49.970;11.062;2023-04-05T20:31:42;0.70;80.30
40249;DHT22;25969;49.970;11.062;2023-04-05T20:41:44;0.70;84.70
40249;DHT22;25969;49.970;11.062;2023-04-05T20:51:45;0.50;85.00
40249;DHT22;25969;49.970;11.062;2023-04-05T21:01:50;0.30;87.60
40249;DHT22;25969;49.970;11.062;2023-04-05T21:11:50;0.00;87.10
40249;DHT22;25969;49.970;11.062;2023-04-05T21:21:51;0.20;87.90
40249;DHT22;25969;49.970;11.062;2023-04-05T21:31:52;-0.10;87.90
40249;DHT22;25969;49.970;11.062;2023-04-05T21:41:52;-0.60;90.50
40249;DHT22;25969;49.970;11.062;2023-04-05T21:51:53;0.50;82.70
